sensor_id;sensor_type;location;lat;lon;timestamp;temperature;humidity
55369;DHT22;41247;49.736;8.752;2023-01-29T00:01:55;-1.00;99.90
55369;DHT22;41247;49.736;8.752;2023-01-29T00:05:36;-1.00;99.90
55369;DHT22;41247;49.736;8.752;2023-01-29T00:09:17;-1.00;99.90
55369;DHT22;41247;49.736;8.752;2023-01-29T00:12:58;-1.00;99.90
55369;DHT22;41247;49.736;8.752;2023-01-29T00:16:38;-1.00;99.90
55369;DHT22;41247;49.736;8.752;2023-01-29T00:20:19;-1.00;99.90
55369;DHT22;41247;49.736;8.752;2023-01-29T00:24:00;-1.00;99.90
55369;DHT22;41247;49.736;8.752;2023-01-29T00:27:40;-1.00;99.90
55369;DHT22;41247;49.736;8.752;2023-01-29T00:31:23;-1.00;99.90
55369;DHT22;41247;49.736;8.752;2023-01-29T00:35:05;-1.10;99.90
55369;DHT22;41247;49.736;8.752;2023-01-29T00:38:47;-1.10;99.90
55369;DHT22;41247;49.736;8.752;2023-01-29T00:42:28;-1.10;99.90
55369;DHT22;41247;49.736;8.752;2023-01-29T00:46:09;-1.10;99.90
55369;DHT22;41247;49.736;8.752;2023-01-29T00:49:50;-1.10;99.90
55369;DHT22;41247;49.736;8.752;2023-01-29T00:53:30;-1.10;99.90
55369;DHT22;41247;49.736;8.752;2023-01-29T00:57:11;-1.10;99.90
55369;DHT22;41247;49.736;8.752;2023-01-29T01:00:51;-1.00;99.90
55369;DHT22;41247;49.736;8.752;2023-01-29T01:04:32;-1.00;99.90
55369;DHT22;41247;49.736;8.752;2023-01-29T01:08:13;-1.00;99.90
55369;DHT22;41247;49.736;8.752;2023-01-29T01:11:54;-1.00;99.90
55369;DHT22;41247;49.736;8.752;2023-01-29T01:15:36;-1.10;99.90
55369;DHT22;41247;49.736;8.752;2023-01-29T01:19:18;-1.10;99.90
55369;DHT22;41247;49.736;8.752;2023-01-29T01:23:00;-1.10;99.90
55369;DHT22;41247;49.736;8.752;2023-01-29T01:26:41;-1.10;99.90
55369;DHT22;41247;49.736;8.752;2023-01-29T01:30:22;-1.10;99.90
55369;DHT22;41247;49.736;8.752;2023-01-29T01:34:03;-1.10;99.90
55369;DHT22;41247;49.736;8.752;2023-01-29T01:37:44;-1.10;99.90
55369;DHT22;41247;49.736;8.752;2023-01-29T01:41:25;-1.20;99.90
55369;DHT22;41247;49.736;8.752;2023-01-29T01:45:13;-1.20;99.90
55369;DHT22;41247;49.736;8.752;2023-01-29T01:49:10;-1.20;99.90
55369;DHT22;41247;49.736;8.752;2023-01-29T01:52:58;-1.20;99.90
55369;DHT22;41247;49.736;8.752;2023-01-29T01:56:52;-1.20;99.90
55369;DHT22;41247;49.736;8.752;2023-01-29T02:00:39;-1.20;99.90
55369;DHT22;41247;49.736;8.752;2023-01-29T02:04:22;-1.20;99.90
55369;DHT22;41247;49.736;8.752;2023-01-29T02:08:05;-1.30;99.90
55369;DHT22;41247;49.736;8.752;2023-01-29T02:11:45;-1.30;99.90
55369;DHT22;41247;49.736;8.752;2023-01-29T02:15:26;-1.30;99.90
55369;DHT22;41247;49.736;8.752;2023-01-29T02:19:18;-1.30;99.90
55369;DHT22;41247;49.736;8.752;2023-01-29T02:27:31;-1.40;99.90
55369;DHT22;41247;49.736;8.752;2023-01-29T02:31:31;-1.40;99.90
55369;DHT22;41247;49.736;8.752;2023-01-29T02:35:24;-1.40;99.90
55369;DHT22;41247;49.736;8.752;2023-01-29T02:39:16;-1.40;99.90
55369;DHT22;41247;49.736;8.752;2023-01-29T02:47:56;-1.50;99.90
55369;DHT22;41247;49.736;8.752;2023-01-29T02:51:44;-1.50;99.90
55369;DHT22;41247;49.736;8.752;2023-01-29T02:55:45;-1.50;99.90
55369;DHT22;41247;49.736;8.752;2023-01-29T02:59:41;-1.50;99.90
55369;DHT22;41247;49.736;8.752;2023-01-29T03:03:32;-1.50;99.90
55369;DHT22;41247;49.736;8.752;2023-01-29T03:07:19;-1.50;99.90
55369;DHT22;41247;49.736;8.752;2023-01-29T03:11:06;-1.50;99.90
55369;DHT22;41247;49.736;8.752;2023-01-29T03:14:48;-1.50;99.90
55369;DHT22;41247;49.736;8.752;2023-01-29T03:18:35;-1.50;99.90
55369;DHT22;41247;49.736;8.752;2023-01-29T03:22:19;-1.50;99.90
55369;DHT22;41247;49.736;8.752;2023-01-29T03:26:00;-1.60;99.90
55369;DHT22;41247;49.736;8.752;2023-01-29T03:29:43;-1.50;99.90
55369;DHT22;41247;49.736;8.752;2023-01-29T03:33:25;-1.50;99.90
55369;DHT22;41247;49.736;8.752;2023-01-29T03:37:23;-1.50;99.90
55369;DHT22;41247;49.736;8.752;2023-01-29T03:41:22;-1.60;99.90
55369;DHT22;41247;49.736;8.752;2023-01-29T03:49:31;-1.50;99.90
55369;DHT22;41247;49.736;8.752;2023-01-29T03:53:46;-1.50;99.90
55369;DHT22;41247;49.736;8.752;2023-01-29T03:57:49;-1.50;99.90
55369;DHT22;41247;49.736;8.752;2023-01-29T04:01:54;-1.40;99.90
55369;DHT22;41247;49.736;8.752;2023-01-29T04:05:52;-1.50;99.90
55369;DHT22;41247;49.736;8.752;2023-01-29T04:09:50;-1.50;99.90
55369;DHT22;41247;49.736;8.752;2023-01-29T04:13:34;-1.50;99.90
55369;DHT22;41247;49.736;8.752;2023-01-29T04:17:18;-1.60;99.90
55369;DHT22;41247;49.736;8.752;2023-01-29T04:21:02;-1.60;99.90
55369;DHT22;41247;49.736;8.752;2023-01-29T04:24:43;-1.50;99.90
55369;DHT22;41247;49.736;8.752;2023-01-29T04:28:47;-1.50;99.90
55369;DHT22;41247;49.736;8.752;2023-01-29T04:32:53;-1.50;99.90
55369;DHT22;41247;49.736;8.752;2023-01-29T04:36:58;-1.40;99.90
55369;DHT22;41247;49.736;8.752;2023-01-29T04:49:26;-1.50;99.90
55369;DHT22;41247;49.736;8.752;2023-01-29T04:53:22;-1.60;99.90
55369;DHT22;41247;49.736;8.752;2023-01-29T05:00:52;-1.60;99.90
55369;DHT22;41247;49.736;8.752;2023-01-29T05:04:34;-1.70;99.90
55369;DHT22;41247;49.736;8.752;2023-01-29T05:08:19;-1.70;99.90
55369;DHT22;41247;49.736;8.752;2023-01-29T05:12:01;-1.70;99.90
55369;DHT22;41247;49.736;8.752;2023-01-29T05:15:56;-1.70;99.90
55369;DHT22;41247;49.736;8.752;2023-01-29T05:19:42;-1.70;99.90
55369;DHT22;41247;49.736;8.752;2023-01-29T05:23:23;-1.70;99.90
55369;DHT22;41247;49.736;8.752;2023-01-29T05:27:03;-1.60;99.90
55369;DHT22;41247;49.736;8.752;2023-01-29T05:30:49;-1.60;99.90
55369;DHT22;41247;49.736;8.752;2023-01-29T05:34:31;-1.60;99.90
55369;DHT22;41247;49.736;8.752;2023-01-29T05:38:12;-1.60;99.90
55369;DHT22;41247;49.736;8.752;2023-01-29T05:41:53;-1.60;99.90
55369;DHT22;41247;49.736;8.752;2023-01-29T05:45:33;-1.60;99.90
55369;DHT22;41247;49.736;8.752;2023-01-29T05:49:16;-1.80;99.90
55369;DHT22;41247;49.736;8.752;2023-01-29T05:52:58;-1.80;99.90
55369;DHT22;41247;49.736;8.752;2023-01-29T05:56:39;-1.80;99.90
55369;DHT22;41247;49.736;8.752;2023-01-29T06:00:20;-1.80;99.90
55369;DHT22;41247;49.736;8.752;2023-01-29T06:04:01;-1.70;99.90
55369;DHT22;41247;49.736;8.752;2023-01-29T06:07:42;-1.70;99.90
55369;DHT22;41247;49.736;8.752;2023-01-29T06:11:22;-1.60;99.90
55369;DHT22;41247;49.736;8.752;2023-01-29T06:15:03;-1.60;99.90
55369;DHT22;41247;49.736;8.752;2023-01-29T06:18:44;-1.70;99.90
55369;DHT22;41247;49.736;8.752;2023-01-29T06:22:25;-1.70;99.90
55369;DHT22;41247;49.736;8.752;2023-01-29T06:26:09;-1.80;99.90
55369;DHT22;41247;49.736;8.752;2023-01-29T06:29:51;-1.80;99.90
55369;DHT22;41247;49.736;8.752;2023-01-29T06:33:31;-1.70;99.90
55369;DHT22;41247;49.736;8.752;2023-01-29T06:37:12;-1.70;99.90
55369;DHT22;41247;49.736;8.752;2023-01-29T06:40:53;-1.80;99.90
55369;DHT22;41247;49.736;8.752;2023-01-29T06:44:37;-1.80;99.90
55369;DHT22;41247;49.736;8.752;2023-01-29T06:48:18;-1.80;99.90
55369;DHT22;41247;49.736;8.752;2023-01-29T06:51:59;-1.70;99.90
55369;DHT22;41247;49.736;8.752;2023-01-29T06:55:39;-1.70;99.90
55369;DHT22;41247;49.736;8.752;2023-01-29T06:59:20;-1.60;99.90
55369;DHT22;41247;49.736;8.752;2023-01-29T07:03:01;-1.70;99.90
55369;DHT22;41247;49.736;8.752;2023-01-29T07:06:42;-1.70;99.90
55369;DHT22;41247;49.736;8.752;2023-01-29T07:10:22;-1.80;99.90
55369;DHT22;41247;49.736;8.752;2023-01-29T07:14:03;-1.90;99.90
55369;DHT22;41247;49.736;8.752;2023-01-29T07:17:57;-2.00;99.90
55369;DHT22;41247;49.736;8.752;2023-01-29T07:21:40;-1.90;99.90
55369;DHT22;41247;49.736;8.752;2023-01-29T07:25:21;-1.90;99.90
55369;DHT22;41247;49.736;8.752;2023-01-29T07:29:03;-1.90;99.90
55369;DHT22;41247;49.736;8.752;2023-01-29T07:32:44;-1.90;99.90
55369;DHT22;41247;49.736;8.752;2023-01-29T07:36:26;-1.80;99.90
55369;DHT22;41247;49.736;8.752;2023-01-29T07:40:08;-1.70;99.90
55369;DHT22;41247;49.736;8.752;2023-01-29T07:43:49;-1.60;99.90
55369;DHT22;41247;49.736;8.752;2023-01-29T07:47:29;-1.60;99.90
55369;DHT22;41247;49.736;8.752;2023-01-29T07:51:10;-1.50;99.90
55369;DHT22;41247;49.736;8.752;2023-01-29T07:54:50;-1.40;99.90
55369;DHT22;41247;49.736;8.752;2023-01-29T07:58:31;-1.40;99.90
55369;DHT22;41247;49.736;8.752;2023-01-29T08:02:12;-1.50;99.90
55369;DHT22;41247;49.736;8.752;2023-01-29T08:05:52;-1.60;99.90
55369;DHT22;41247;49.736;8.752;2023-01-29T08:09:34;-1.60;99.90
55369;DHT22;41247;49.736;8.752;2023-01-29T08:13:15;-1.60;99.90
55369;DHT22;41247;49.736;8.752;2023-01-29T08:16:55;-1.40;99.90
55369;DHT22;41247;49.736;8.752;2023-01-29T08:20:36;-1.20;99.90
55369;DHT22;41247;49.736;8.752;2023-01-29T08:24:17;-1.20;99.90
55369;DHT22;41247;49.736;8.752;2023-01-29T08:27:58;-1.20;99.90
55369;DHT22;41247;49.736;8.752;2023-01-29T08:31:39;-1.20;99.90
55369;DHT22;41247;49.736;8.752;2023-01-29T08:35:21;-1.20;99.90
55369;DHT22;41247;49.736;8.752;2023-01-29T08:39:01;-1.20;99.90
55369;DHT22;41247;49.736;8.752;2023-01-29T08:42:42;-1.30;99.90
55369;DHT22;41247;49.736;8.752;2023-01-29T08:46:23;-1.20;99.90
55369;DHT22;41247;49.736;8.752;2023-01-29T08:50:04;-1.10;99.90
55369;DHT22;41247;49.736;8.752;2023-01-29T08:53:44;-1.10;99.90
55369;DHT22;41247;49.736;8.752;2023-01-29T08:57:25;-1.00;99.90
55369;DHT22;41247;49.736;8.752;2023-01-29T09:01:08;-1.00;99.90
55369;DHT22;41247;49.736;8.752;2023-01-29T09:04:49;-1.00;99.90
55369;DHT22;41247;49.736;8.752;2023-01-29T09:08:30;-0.80;99.90
55369;DHT22;41247;49.736;8.752;2023-01-29T09:12:10;-0.80;99.90
55369;DHT22;41247;49.736;8.752;2023-01-29T09:15:51;-0.60;99.90
55369;DHT22;41247;49.736;8.752;2023-01-29T09:19:32;-0.30;99.90
55369;DHT22;41247;49.736;8.752;2023-01-29T09:23:12;-0.30;99.90
55369;DHT22;41247;49.736;8.752;2023-01-29T09:26:53;-0.30;99.90
55369;DHT22;41247;49.736;8.752;2023-01-29T09:30:33;-0.30;99.90
55369;DHT22;41247;49.736;8.752;2023-01-29T09:34:14;-0.40;99.90
55369;DHT22;41247;49.736;8.752;2023-01-29T09:37:54;-0.40;99.90
55369;DHT22;41247;49.736;8.752;2023-01-29T09:41:55;-0.30;99.90
55369;DHT22;41247;49.736;8.752;2023-01-29T09:46:06;-0.30;99.90
55369;DHT22;41247;49.736;8.752;2023-01-29T09:49:56;-0.30;99.90
55369;DHT22;41247;49.736;8.752;2023-01-29T09:54:10;-0.20;99.90
55369;DHT22;41247;49.736;8.752;2023-01-29T09:57:55;-0.10;99.90
55369;DHT22;41247;49.736;8.752;2023-01-29T10:02:08;-0.10;99.90
55369;DHT22;41247;49.736;8.752;2023-01-29T10:10:05;-0.10;99.90
55369;DHT22;41247;49.736;8.752;2023-01-29T10:18:05;0.20;99.90
55369;DHT22;41247;49.736;8.752;2023-01-29T10:26:12;0.50;99.90
55369;DHT22;41247;49.736;8.752;2023-01-29T10:29:54;0.50;99.90
55369;DHT22;41247;49.736;8.752;2023-01-29T10:33:46;0.50;99.90
55369;DHT22;41247;49.736;8.752;2023-01-29T10:37:39;0.40;99.90
55369;DHT22;41247;49.736;8.752;2023-01-29T10:54:04;0.40;99.90
55369;DHT22;41247;49.736;8.752;2023-01-29T11:01:46;0.50;99.90
55369;DHT22;41247;49.736;8.752;2023-01-29T11:05:57;0.70;99.90
55369;DHT22;41247;49.736;8.752;2023-01-29T11:09:49;0.50;99.90
55369;DHT22;41247;49.736;8.752;2023-01-29T11:13:47;0.30;99.90
55369;DHT22;41247;49.736;8.752;2023-01-29T11:17:31;0.20;99.90
55369;DHT22;41247;49.736;8.752;2023-01-29T11:21:12;0.40;99.90
55369;DHT22;41247;49.736;8.752;2023-01-29T11:25:19;0.40;99.90
55369;DHT22;41247;49.736;8.752;2023-01-29T11:29:00;0.40;99.90
55369;DHT22;41247;49.736;8.752;2023-01-29T11:32:41;0.70;99.90
55369;DHT22;41247;49.736;8.752;2023-01-29T11:36:33;0.70;99.90
55369;DHT22;41247;49.736;8.752;2023-01-29T11:44:19;0.50;99.90
55369;DHT22;41247;49.736;8.752;2023-01-29T11:48:01;0.40;99.90
55369;DHT22;41247;49.736;8.752;2023-01-29T11:51:42;0.40;99.90
55369;DHT22;41247;49.736;8.752;2023-01-29T11:55:33;0.50;99.90
55369;DHT22;41247;49.736;8.752;2023-01-29T11:59:34;0.50;99.90
55369;DHT22;41247;49.736;8.752;2023-01-29T12:07:28;0.70;99.90
55369;DHT22;41247;49.736;8.752;2023-01-29T12:11:23;0.80;99.90
55369;DHT22;41247;49.736;8.752;2023-01-29T12:15:18;0.80;99.90
55369;DHT22;41247;49.736;8.752;2023-01-29T12:19:10;0.70;99.90
55369;DHT22;41247;49.736;8.752;2023-01-29T12:26:48;0.80;99.90
55369;DHT22;41247;49.736;8.752;2023-01-29T12:31:10;0.90;99.90
55369;DHT22;41247;49.736;8.752;2023-01-29T12:35:17;1.10;99.90
55369;DHT22;41247;49.736;8.752;2023-01-29T12:39:00;1.20;99.90
55369;DHT22;41247;49.736;8.752;2023-01-29T12:42:45;1.00;99.90
55369;DHT22;41247;49.736;8.752;2023-01-29T12:46:39;1.20;99.90
55369;DHT22;41247;49.736;8.752;2023-01-29T12:50:28;1.30;99.90
55369;DHT22;41247;49.736;8.752;2023-01-29T12:54:14;1.30;99.90
55369;DHT22;41247;49.736;8.752;2023-01-29T12:58:20;1.30;99.90
55369;DHT22;41247;49.736;8.752;2023-01-29T13:06:08;1.10;99.90
55369;DHT22;41247;49.736;8.752;2023-01-29T13:09:54;1.10;99.90
55369;DHT22;41247;49.736;8.752;2023-01-29T13:14:00;1.30;99.90
55369;DHT22;41247;49.736;8.752;2023-01-29T13:17:52;1.50;99.90
55369;DHT22;41247;49.736;8.752;2023-01-29T13:21:39;1.50;99.90
55369;DHT22;41247;49.736;8.752;2023-01-29T13:25:21;1.50;99.90
55369;DHT22;41247;49.736;8.752;2023-01-29T13:29:02;1.50;99.90
55369;DHT22;41247;49.736;8.752;2023-01-29T13:32:50;1.50;99.90
55369;DHT22;41247;49.736;8.752;2023-01-29T13:36:32;1.50;99.90
55369;DHT22;41247;49.736;8.752;2023-01-29T13:40:27;1.40;99.90
55369;DHT22;41247;49.736;8.752;2023-01-29T13:44:36;1.20;99.90
55369;DHT22;41247;49.736;8.752;2023-01-29T13:48:26;1.00;99.90
55369;DHT22;41247;49.736;8.752;2023-01-29T13:52:39;0.70;99.90
55369;DHT22;41247;49.736;8.752;2023-01-29T14:04:25;0.60;99.90
55369;DHT22;41247;49.736;8.752;2023-01-29T14:11:49;0.90;99.90
55369;DHT22;41247;49.736;8.752;2023-01-29T14:15:34;1.00;99.90
55369;DHT22;41247;49.736;8.752;2023-01-29T14:19:17;1.20;99.90
55369;DHT22;41247;49.736;8.752;2023-01-29T14:23:22;1.30;99.90
55369;DHT22;41247;49.736;8.752;2023-01-29T14:27:18;1.20;99.90
55369;DHT22;41247;49.736;8.752;2023-01-29T14:31:00;1.10;99.90
55369;DHT22;41247;49.736;8.752;2023-01-29T14:34:46;1.00;99.90
55369;DHT22;41247;49.736;8.752;2023-01-29T14:38:29;0.70;99.90
55369;DHT22;41247;49.736;8.752;2023-01-29T14:46:42;0.50;99.90
55369;DHT22;41247;49.736;8.752;2023-01-29T14:57:58;0.60;99.90
55369;DHT22;41247;49.736;8.752;2023-01-29T15:01:50;0.60;99.90
55369;DHT22;41247;49.736;8.752;2023-01-29T15:05:36;0.60;99.90
55369;DHT22;41247;49.736;8.752;2023-01-29T15:09:38;0.60;99.90
55369;DHT22;41247;49.736;8.752;2023-01-29T15:13:37;0.70;99.90
55369;DHT22;41247;49.736;8.752;2023-01-29T15:21:17;2.40;99.90
55369;DHT22;41247;49.736;8.752;2023-01-29T15:25:25;4.10;99.90
55369;DHT22;41247;49.736;8.752;2023-01-29T15:29:23;4.30;99.90
55369;DHT22;41247;49.736;8.752;2023-01-29T15:33:08;2.70;99.90
55369;DHT22;41247;49.736;8.752;2023-01-29T15:36:50;1.40;99.90
55369;DHT22;41247;49.736;8.752;2023-01-29T15:40:31;0.60;99.90
55369;DHT22;41247;49.736;8.752;2023-01-29T15:44:15;0.20;99.90
55369;DHT22;41247;49.736;8.752;2023-01-29T15:48:05;-0.10;99.90
55369;DHT22;41247;49.736;8.752;2023-01-29T15:51:55;-0.30;99.90
55369;DHT22;41247;49.736;8.752;2023-01-29T15:55:38;-0.40;99.90
55369;DHT22;41247;49.736;8.752;2023-01-29T15:59:25;-0.50;99.90
55369;DHT22;41247;49.736;8.752;2023-01-29T16:03:13;-0.70;99.90
55369;DHT22;41247;49.736;8.752;2023-01-29T16:06:55;-0.80;99.90
55369;DHT22;41247;49.736;8.752;2023-01-29T16:10:39;-0.80;99.90
55369;DHT22;41247;49.736;8.752;2023-01-29T16:14:22;-0.90;99.90
55369;DHT22;41247;49.736;8.752;2023-01-29T16:18:19;-1.00;99.90
55369;DHT22;41247;49.736;8.752;2023-01-29T16:22:03;-1.10;99.90
55369;DHT22;41247;49.736;8.752;2023-01-29T16:25:47;-1.20;99.90
55369;DHT22;41247;49.736;8.752;2023-01-29T16:29:32;-1.20;99.90
55369;DHT22;41247;49.736;8.752;2023-01-29T16:33:15;-1.30;99.90
55369;DHT22;41247;49.736;8.752;2023-01-29T16:36:56;-1.30;99.90
55369;DHT22;41247;49.736;8.752;2023-01-29T16:40:37;-1.30;99.90
55369;DHT22;41247;49.736;8.752;2023-01-29T16:48:00;-1.40;99.90
55369;DHT22;41247;49.736;8.752;2023-01-29T16:56:07;-1.50;99.90
55369;DHT22;41247;49.736;8.752;2023-01-29T16:59:53;-1.50;99.90
55369;DHT22;41247;49.736;8.752;2023-01-29T17:03:37;-1.50;99.90
55369;DHT22;41247;49.736;8.752;2023-01-29T17:07:19;-1.60;99.90
55369;DHT22;41247;49.736;8.752;2023-01-29T17:11:02;-1.60;99.90
55369;DHT22;41247;49.736;8.752;2023-01-29T17:14:52;-1.60;99.90
55369;DHT22;41247;49.736;8.752;2023-01-29T17:18:35;-1.70;99.90
55369;DHT22;41247;49.736;8.752;2023-01-29T17:22:25;-1.70;99.90
55369;DHT22;41247;49.736;8.752;2023-01-29T17:26:12;-1.70;99.90
55369;DHT22;41247;49.736;8.752;2023-01-29T17:29:53;-1.70;99.90
55369;DHT22;41247;49.736;8.752;2023-01-29T17:33:40;-1.60;99.90
55369;DHT22;41247;49.736;8.752;2023-01-29T17:37:21;-1.70;99.90
55369;DHT22;41247;49.736;8.752;2023-01-29T17:45:04;-1.70;99.90
55369;DHT22;41247;49.736;8.752;2023-01-29T17:48:45;-1.60;99.90
55369;DHT22;41247;49.736;8.752;2023-01-29T17:52:26;-1.60;99.90
55369;DHT22;41247;49.736;8.752;2023-01-29T17:56:13;-1.50;99.90
55369;DHT22;41247;49.736;8.752;2023-01-29T17:59:54;-1.50;99.90
55369;DHT22;41247;49.736;8.752;2023-01-29T18:03:35;-1.50;99.90
55369;DHT22;41247;49.736;8.752;2023-01-29T18:07:15;-1.40;99.90
55369;DHT22;41247;49.736;8.752;2023-01-29T18:10:56;-1.30;99.90
55369;DHT22;41247;49.736;8.752;2023-01-29T18:14:37;-1.30;99.90
55369;DHT22;41247;49.736;8.752;2023-01-29T18:18:19;-1.30;99.90
55369;DHT22;41247;49.736;8.752;2023-01-29T18:22:00;-1.30;99.90
55369;DHT22;41247;49.736;8.752;2023-01-29T18:25:43;-1.30;99.90
55369;DHT22;41247;49.736;8.752;2023-01-29T18:29:23;-1.30;99.90
55369;DHT22;41247;49.736;8.752;2023-01-29T18:33:04;-1.30;99.90
55369;DHT22;41247;49.736;8.752;2023-01-29T18:36:45;-1.30;99.90
55369;DHT22;41247;49.736;8.752;2023-01-29T18:40:25;-1.40;99.90
55369;DHT22;41247;49.736;8.752;2023-01-29T18:44:06;-1.40;99.90
55369;DHT22;41247;49.736;8.752;2023-01-29T18:47:46;-1.50;99.90
55369;DHT22;41247;49.736;8.752;2023-01-29T18:51:27;-1.50;99.90
55369;DHT22;41247;49.736;8.752;2023-01-29T18:55:08;-1.50;99.90
55369;DHT22;41247;49.736;8.752;2023-01-29T18:58:53;-1.50;99.90
55369;DHT22;41247;49.736;8.752;2023-01-29T19:02:34;-1.50;99.90
55369;DHT22;41247;49.736;8.752;2023-01-29T19:06:15;-1.60;99.90
55369;DHT22;41247;49.736;8.752;2023-01-29T19:09:55;-1.60;99.90
55369;DHT22;41247;49.736;8.752;2023-01-29T19:13:36;-1.60;99.90
55369;DHT22;41247;49.736;8.752;2023-01-29T19:17:17;-1.50;99.90
55369;DHT22;41247;49.736;8.752;2023-01-29T19:20:57;-1.60;99.90
55369;DHT22;41247;49.736;8.752;2023-01-29T19:24:39;-1.60;99.90
55369;DHT22;41247;49.736;8.752;2023-01-29T19:28:19;-1.60;99.90
55369;DHT22;41247;49.736;8.752;2023-01-29T19:32:00;-1.60;99.90
55369;DHT22;41247;49.736;8.752;2023-01-29T19:35:44;-1.70;99.90
55369;DHT22;41247;49.736;8.752;2023-01-29T19:39:24;-1.70;99.90
55369;DHT22;41247;49.736;8.752;2023-01-29T19:43:05;-1.70;99.90
55369;DHT22;41247;49.736;8.752;2023-01-29T19:46:45;-1.70;99.90
55369;DHT22;41247;49.736;8.752;2023-01-29T19:50:26;-1.70;99.90
55369;DHT22;41247;49.736;8.752;2023-01-29T19:54:07;-1.80;99.90
55369;DHT22;41247;49.736;8.752;2023-01-29T19:57:51;-1.80;99.90
55369;DHT22;41247;49.736;8.752;2023-01-29T20:01:32;-1.80;99.90
55369;DHT22;41247;49.736;8.752;2023-01-29T20:05:13;-1.80;99.90
55369;DHT22;41247;49.736;8.752;2023-01-29T20:08:54;-1.80;99.90
55369;DHT22;41247;49.736;8.752;2023-01-29T20:12:34;-1.80;99.90
55369;DHT22;41247;49.736;8.752;2023-01-29T20:16:17;-1.80;99.90
55369;DHT22;41247;49.736;8.752;2023-01-29T20:19:58;-1.80;99.90
55369;DHT22;41247;49.736;8.752;2023-01-29T20:23:38;-1.80;99.90
55369;DHT22;41247;49.736;8.752;2023-01-29T20:27:19;-1.90;99.90
55369;DHT22;41247;49.736;8.752;2023-01-29T20:31:01;-1.90;99.90
55369;DHT22;41247;49.736;8.752;2023-01-29T20:34:42;-2.00;99.90
55369;DHT22;41247;49.736;8.752;2023-01-29T20:38:23;-2.00;99.90
55369;DHT22;41247;49.736;8.752;2023-01-29T20:42:04;-2.00;99.90
55369;DHT22;41247;49.736;8.752;2023-01-29T20:45:45;-2.00;99.90
55369;DHT22;41247;49.736;8.752;2023-01-29T20:49:26;-2.10;99.90
55369;DHT22;41247;49.736;8.752;2023-01-29T20:53:06;-2.10;99.90
55369;DHT22;41247;49.736;8.752;2023-01-29T20:56:47;-2.10;99.90
55369;DHT22;41247;49.736;8.752;2023-01-29T21:00:27;-2.10;99.90
55369;DHT22;41247;49.736;8.752;2023-01-29T21:04:08;-2.10;99.90
55369;DHT22;41247;49.736;8.752;2023-01-29T21:07:48;-2.20;99.90
55369;DHT22;41247;49.736;8.752;2023-01-29T21:11:29;-2.20;99.90
55369;DHT22;41247;49.736;8.752;2023-01-29T21:15:10;-2.20;99.90
55369;DHT22;41247;49.736;8.752;2023-01-29T21:18:54;-2.10;99.90
55369;DHT22;41247;49.736;8.752;2023-01-29T21:22:35;-2.20;99.90
55369;DHT22;41247;49.736;8.752;2023-01-29T21:26:16;-2.20;99.90
55369;DHT22;41247;49.736;8.752;2023-01-29T21:29:56;-2.20;99.90
55369;DHT22;41247;49.736;8.752;2023-01-29T21:33:37;-2.20;99.90
55369;DHT22;41247;49.736;8.752;2023-01-29T21:37:18;-2.10;99.90
55369;DHT22;41247;49.736;8.752;2023-01-29T21:40:59;-2.10;99.90
55369;DHT22;41247;49.736;8.752;2023-01-29T21:44:41;-2.10;99.90
55369;DHT22;41247;49.736;8.752;2023-01-29T21:48:22;-2.00;99.90
55369;DHT22;41247;49.736;8.752;2023-01-29T21:52:02;-2.10;99.90
55369;DHT22;41247;49.736;8.752;2023-01-29T21:55:44;-2.10;99.90
55369;DHT22;41247;49.736;8.752;2023-01-29T21:59:25;-2.10;99.90
55369;DHT22;41247;49.736;8.752;2023-01-29T22:03:05;-2.10;99.90
55369;DHT22;41247;49.736;8.752;2023-01-29T22:06:46;-2.10;99.90
55369;DHT22;41247;49.736;8.752;2023-01-29T22:10:27;-2.00;99.90
55369;DHT22;41247;49.736;8.752;2023-01-29T22:14:07;-1.90;99.90
55369;DHT22;41247;49.736;8.752;2023-01-29T22:17:48;-1.80;99.90
55369;DHT22;41247;49.736;8.752;2023-01-29T22:21:29;-1.70;99.90
55369;DHT22;41247;49.736;8.752;2023-01-29T22:25:10;-1.70;99.90
55369;DHT22;41247;49.736;8.752;2023-01-29T22:28:50;-1.60;99.90
55369;DHT22;41247;49.736;8.752;2023-01-29T22:32:31;-1.50;99.90
55369;DHT22;41247;49.736;8.752;2023-01-29T22:36:12;-1.50;99.90
55369;DHT22;41247;49.736;8.752;2023-01-29T22:39:53;-1.50;99.90
55369;DHT22;41247;49.736;8.752;2023-01-29T22:43:33;-1.50;99.90
55369;DHT22;41247;49.736;8.752;2023-01-29T22:47:14;-1.40;99.90
55369;DHT22;41247;49.736;8.752;2023-01-29T22:50:57;-1.40;99.90
55369;DHT22;41247;49.736;8.752;2023-01-29T22:54:42;-1.40;99.90
55369;DHT22;41247;49.736;8.752;2023-01-29T22:58:22;-1.40;99.90
55369;DHT22;41247;49.736;8.752;2023-01-29T23:02:03;-1.30;99.90
55369;DHT22;41247;49.736;8.752;2023-01-29T23:05:44;-1.30;99.90
55369;DHT22;41247;49.736;8.752;2023-01-29T23:09:28;-1.20;99.90
55369;DHT22;41247;49.736;8.752;2023-01-29T23:13:08;-1.20;99.90
55369;DHT22;41247;49.736;8.752;2023-01-29T23:16:49;-1.10;99.90
55369;DHT22;41247;49.736;8.752;2023-01-29T23:20:29;-1.10;99.90
55369;DHT22;41247;49.736;8.752;2023-01-29T23:24:10;-1.10;99.90
55369;DHT22;41247;49.736;8.752;2023-01-29T23:27:51;-1.10;99.90
55369;DHT22;41247;49.736;8.752;2023-01-29T23:31:31;-1.00;99.90
55369;DHT22;41247;49.736;8.752;2023-01-29T23:35:12;-1.00;99.90
55369;DHT22;41247;49.736;8.752;2023-01-29T23:38:52;-1.00;99.90
55369;DHT22;41247;49.736;8.752;2023-01-29T23:42:33;-1.00;99.90
55369;DHT22;41247;49.736;8.752;2023-01-29T23:46:14;-1.00;99.90
55369;DHT22;41247;49.736;8.752;2023-01-29T23:49:54;-1.00;99.90
55369;DHT22;41247;49.736;8.752;2023-01-29T23:53:35;-0.90;99.90
55369;DHT22;41247;49.736;8.752;2023-01-29T23:57:15;-0.90;99.90
